Station Historical Data
Daily Summary for April 25, 2017 Units:  English    Metric   Both
Next Day »
Daily Weekly Monthly Yearly Custom
  High: Low: Average:
Temperature: 58.3 °F 44.2 °F 50.5 °F
Dew Point: 48.5 °F 41.2 °F 43.9 °F
Humidity: 90% 63% 79%
Wind Speed: 11.0mph 0.0mph 0.7mph
Wind Gust: 13.0mph - -
Wind- - WSW
Pressure: 30.14 in 30.04 in -
Precipitation: 0.00 in    
Historical Graphs
 
 
Tabular Data for April 25, 2017
Time Temperature Dew Point Pressure Wind Wind Speed Wind Gust Humidity Rainfall Rate (Hourly) solar Conditions
00:03 47.5 °F 44.4 °F 30.06 in Calm     89% 0.00 in 0.00 W/m2
00:08 47.5 °F 44.4 °F 30.06 in Calm     89% 0.00 in 0.00 W/m2
00:13 47.4 °F 44.3 °F 30.06 in Calm     89% 0.00 in 0.00 W/m2
00:19 47.4 °F 44.3 °F 30.06 in Calm     89% 0.00 in 0.00 W/m2
00:24 47.4 °F 44.3 °F 30.06 in Calm     89% 0.00 in 0.00 W/m2
00:29 47.3 °F 44.2 °F 30.06 in Calm     89% 0.00 in 0.00 W/m2
00:34 47.3 °F 44.2 °F 30.06 in Calm     89% 0.00 in 0.00 W/m2
00:39 47.2 °F 44.1 °F 30.06 in Calm     89% 0.00 in 0.00 W/m2
00:44 47.1 °F 44.0 °F 30.06 in Calm     89% 0.00 in 0.00 W/m2
00:49 47.0 °F 43.9 °F 30.06 in Calm     89% 0.00 in 0.00 W/m2
00:54 46.9 °F 43.8 °F 30.06 in Calm     89% 0.00 in 0.00 W/m2
00:59 46.7 °F 43.9 °F 30.06 in Calm     90% 0.00 in 0.00 W/m2
01:04 46.5 °F 43.4 °F 30.06 in Calm     89% 0.00 in 0.00 W/m2
01:09 46.3 °F 43.5 °F 30.06 in Calm     90% 0.00 in 0.00 W/m2
01:19 45.8 °F 42.8 °F 30.06 in Calm     89% 0.00 in 0.00 W/m2
01:24 45.6 °F 42.5 °F 30.06 in Calm     89% 0.00 in 0.00 W/m2
01:29 45.5 °F 42.7 °F 30.06 in Calm     90% 0.00 in 0.00 W/m2
01:34 45.5 °F 42.7 °F 30.06 in Calm     90% 0.00 in 0.00 W/m2
01:39 45.5 °F 42.5 °F 30.06 in Calm     89% 0.00 in 0.00 W/m2
01:44 45.4 °F 42.6 °F 30.06 in Calm     90% 0.00 in 0.00 W/m2
01:49 45.4 °F 42.6 °F 30.07 in Calm     90% 0.00 in 0.00 W/m2
01:54 45.2 °F 42.2 °F 30.06 in Calm     89% 0.00 in 0.00 W/m2
01:59 45.1 °F 42.1 °F 30.06 in Calm     89% 0.00 in 0.00 W/m2
02:04 44.9 °F 42.2 °F 30.06 in Calm     90% 0.00 in 0.00 W/m2
02:09 44.8 °F 42.0 °F 30.06 in Calm     90% 0.00 in 0.00 W/m2
02:14 44.8 °F 42.0 °F 30.07 in Calm     90% 0.00 in 0.00 W/m2
02:19 44.7 °F 42.0 °F 30.06 in Calm     90% 0.00 in 0.00 W/m2
02:24 44.7 °F 42.0 °F 30.06 in Calm     90% 0.00 in 0.00 W/m2
02:29 44.7 °F 41.7 °F 30.06 in Calm     89% 0.00 in 0.00 W/m2
02:34 44.7 °F 42.0 °F 30.06 in Calm     90% 0.00 in 0.00 W/m2
02:39 44.7 °F 41.7 °F 30.05 in Calm     89% 0.00 in 0.00 W/m2
02:44 44.8 °F 42.0 °F 30.05 in Calm     90% 0.00 in 0.00 W/m2
02:49 44.7 °F 41.7 °F 30.05 in Calm     89% 0.00 in 0.00 W/m2
02:54 44.8 °F 41.8 °F 30.05 in Calm     89% 0.00 in 0.00 W/m2
02:59 44.8 °F 41.8 °F 30.05 in Calm     89% 0.00 in 0.00 W/m2
03:04 44.9 °F 41.9 °F 30.04 in Calm     89% 0.00 in 0.00 W/m2
03:09 44.8 °F 41.8 °F 30.05 in Calm     89% 0.00 in 0.00 W/m2
03:14 44.9 °F 41.9 °F 30.05 in Calm     89% 0.00 in 0.00 W/m2
03:19 44.9 °F 41.9 °F 30.04 in Calm     89% 0.00 in 0.00 W/m2
03:24 44.9 °F 41.9 °F 30.04 in Calm     89% 0.00 in 0.00 W/m2
03:26 44.9 °F 41.9 °F 30.05 in Calm     89% 0.00 in 0.00 W/m2
03:31 44.8 °F 41.8 °F 30.04 in Calm     89% 0.00 in 0.00 W/m2
03:36 44.8 °F 41.8 °F 30.05 in Calm     89% 0.00 in 0.00 W/m2
03:41 44.8 °F 42.0 °F 30.04 in Calm     90% 0.00 in 0.00 W/m2
03:46 44.7 °F 42.0 °F 30.05 in Calm     90% 0.00 in 0.00 W/m2
03:51 44.6 °F 41.6 °F 30.05 in Calm     89% 0.00 in 0.00 W/m2
03:56 44.6 °F 41.6 °F 30.05 in Calm     89% 0.00 in 0.00 W/m2
04:01 44.5 °F 41.5 °F 30.05 in Calm     89% 0.00 in 0.00 W/m2
04:06 44.5 °F 41.5 °F 30.05 in Calm     89% 0.00 in 0.00 W/m2
04:11 44.4 °F 41.4 °F 30.04 in Calm     89% 0.00 in 0.00 W/m2
04:16 44.4 °F 41.4 °F 30.04 in Calm     89% 0.00 in 0.00 W/m2
04:21 44.5 °F 41.5 °F 30.04 in Calm     89% 0.00 in 0.00 W/m2
04:26 44.5 °F 41.5 °F 30.04 in Calm     89% 0.00 in 0.00 W/m2
04:31 44.6 °F 41.6 °F 30.04 in Calm     89% 0.00 in 0.00 W/m2
04:36 44.6 °F 41.6 °F 30.04 in Calm     89% 0.00 in 0.00 W/m2
04:41 44.6 °F 41.6 °F 30.04 in Calm     89% 0.00 in 0.00 W/m2
04:47 44.7 °F 41.7 °F 30.04 in Calm     89% 0.00 in 0.00 W/m2
04:52 44.7 °F 41.7 °F 30.05 in Calm     89% 0.00 in 0.00 W/m2
04:57 44.7 °F 41.7 °F 30.05 in Calm     89% 0.00 in 0.00 W/m2
05:02 44.7 °F 41.7 °F 30.05 in Calm     89% 0.00 in 0.00 W/m2
05:07 44.7 °F 41.7 °F 30.05 in Calm     89% 0.00 in 0.00 W/m2
05:12 44.7 °F 41.7 °F 30.05 in Calm     89% 0.00 in 0.00 W/m2
05:17 44.7 °F 41.7 °F 30.05 in Calm     89% 0.00 in 0.00 W/m2
05:22 44.6 °F 41.8 °F 30.05 in Calm     90% 0.00 in 0.00 W/m2
05:28 44.6 °F 41.8 °F 30.05 in Calm     90% 0.00 in 0.00 W/m2
05:33 44.6 °F 41.8 °F 30.05 in Calm     90% 0.00 in 0.00 W/m2
05:38 44.6 °F 41.6 °F 30.05 in Calm     89% 0.00 in 0.00 W/m2
05:43 44.5 °F 41.5 °F 30.05 in Calm     89% 0.00 in 0.00 W/m2
05:48 44.5 °F 41.5 °F 30.05 in Calm     89% 0.00 in 0.00 W/m2
05:53 44.4 °F 41.4 °F 30.04 in Calm     89% 0.00 in 0.00 W/m2
05:58 44.4 °F 41.4 °F 30.05 in Calm     89% 0.00 in 0.00 W/m2
06:03 44.3 °F 41.3 °F 30.05 in Calm     89% 0.00 in 5.00 W/m2
06:08 44.3 °F 41.6 °F 30.05 in Calm     90% 0.00 in 7.00 W/m2
06:13 44.2 °F 41.5 °F 30.05 in Calm     90% 0.00 in 11.00 W/m2
06:18 44.2 °F 41.5 °F 30.05 in Calm     90% 0.00 in 12.00 W/m2
06:23 44.2 °F 41.5 °F 30.06 in Calm     90% 0.00 in 18.00 W/m2
06:28 44.2 °F 41.5 °F 30.06 in Calm     90% 0.00 in 28.00 W/m2
06:33 44.2 °F 41.5 °F 30.06 in Calm     90% 0.00 in 40.00 W/m2
06:38 44.2 °F 41.5 °F 30.06 in Calm     90% 0.00 in 47.00 W/m2
06:43 44.2 °F 41.5 °F 30.06 in Calm     90% 0.00 in 46.00 W/m2
06:48 44.2 °F 41.5 °F 30.06 in Calm     90% 0.00 in 49.00 W/m2
06:53 44.2 °F 41.5 °F 30.06 in Calm     90% 0.00 in 51.00 W/m2
06:58 44.2 °F 41.2 °F 30.06 in Calm     89% 0.00 in 65.00 W/m2
07:03 44.2 °F 41.5 °F 30.07 in Calm     90% 0.00 in 90.00 W/m2
07:08 44.2 °F 41.5 °F 30.07 in Calm     90% 0.00 in 77.00 W/m2
07:13 44.2 °F 41.2 °F 30.06 in Calm     89% 0.00 in 97.00 W/m2
07:19 44.3 °F 41.3 °F 30.07 in Calm     89% 0.00 in 93.00 W/m2
07:24 44.3 °F 41.3 °F 30.07 in Calm     89% 0.00 in 97.00 W/m2
07:29 44.4 °F 41.4 °F 30.07 in Calm     89% 0.00 in 134.00 W/m2
07:34 44.5 °F 41.5 °F 30.07 in Calm     89% 0.00 in 141.00 W/m2
07:39 44.5 °F 41.5 °F 30.07 in Calm     89% 0.00 in 114.00 W/m2
07:44 44.6 °F 41.6 °F 30.07 in Calm     89% 0.00 in 144.00 W/m2
07:49 44.7 °F 41.7 °F 30.06 in Calm     89% 0.00 in 127.00 W/m2
07:54 44.8 °F 41.8 °F 30.07 in Calm     89% 0.00 in 137.00 W/m2
07:59 44.9 °F 41.9 °F 30.07 in Calm     89% 0.00 in 142.00 W/m2
08:04 44.9 °F 41.9 °F 30.07 in Calm     89% 0.00 in 246.00 W/m2
08:09 45.0 °F 42.0 °F 30.07 in Calm     89% 0.00 in 387.00 W/m2
08:14 45.2 °F 42.2 °F 30.07 in Calm     89% 0.00 in 353.00 W/m2
08:24 45.4 °F 42.3 °F 30.07 in Calm     89% 0.00 in 258.00 W/m2
08:29 45.7 °F 42.7 °F 30.07 in Calm     89% 0.00 in 417.00 W/m2
08:34 45.9 °F 42.8 °F 30.08 in Calm     89% 0.00 in 251.00 W/m2
08:39 46.0 °F 43.2 °F 30.07 in Calm     90% 0.00 in 241.00 W/m2
08:44 46.1 °F 43.0 °F 30.08 in Calm     89% 0.00 in 320.00 W/m2
08:49 46.4 °F 43.3 °F 30.08 in Calm     89% 0.00 in 207.00 W/m2
08:54 46.6 °F 43.5 °F 30.09 in Calm     89% 0.00 in 281.00 W/m2
08:59 46.8 °F 43.7 °F 30.10 in Calm     89% 0.00 in 236.00 W/m2
09:04 47.1 °F 44.0 °F 30.11 in Calm     89% 0.00 in 329.00 W/m2
09:09 47.4 °F 44.3 °F 30.11 in Calm     89% 0.00 in 292.00 W/m2
09:14 47.7 °F 44.9 °F 30.12 in East 1.0 mph 4.0 mph 90% 0.00 in 396.00 W/m2
09:19 47.9 °F 45.1 °F 30.12 in ENE 3.0 mph 4.0 mph 90% 0.00 in 221.00 W/m2
09:24 47.9 °F 45.1 °F 30.11 in Calm   3.0 mph 90% 0.00 in 313.00 W/m2
09:29 47.9 °F 44.8 °F 30.11 in ENE 3.0 mph 3.0 mph 89% 0.00 in 452.00 W/m2
09:34 48.0 °F 44.9 °F 30.10 in Calm   2.0 mph 89% 0.00 in 418.00 W/m2
09:39 48.1 °F 45.0 °F 30.09 in Calm     89% 0.00 in 404.00 W/m2
09:44 48.2 °F 44.8 °F 30.09 in Calm     88% 0.00 in 413.00 W/m2
09:49 48.2 °F 44.2 °F 30.10 in Calm     86% 0.00 in 381.00 W/m2
09:54 48.3 °F 43.7 °F 30.10 in ENE 1.0 mph 2.0 mph 84% 0.00 in 719.00 W/m2
09:59 48.6 °F 44.0 °F 30.10 in Calm   4.0 mph 84% 0.00 in 434.00 W/m2
10:04 48.8 °F 43.9 °F 30.11 in NE 1.0 mph 3.0 mph 83% 0.00 in 366.00 W/m2
10:09 48.9 °F 43.3 °F 30.11 in NE 1.0 mph 6.0 mph 81% 0.00 in 700.00 W/m2
10:14 49.0 °F 42.5 °F 30.10 in Calm   3.0 mph 78% 0.00 in 726.00 W/m2
10:19 49.3 °F 44.0 °F 30.10 in NE 2.0 mph 5.0 mph 82% 0.00 in 737.00 W/m2
10:24 49.6 °F 43.4 °F 30.11 in NE 1.0 mph 5.0 mph 79% 0.00 in 786.00 W/m2
10:29 50.0 °F 44.1 °F 30.11 in NNE 6.0 mph 7.0 mph 80% 0.00 in 809.00 W/m2
10:34 50.5 °F 44.2 °F 30.11 in Calm   7.0 mph 79% 0.00 in 963.00 W/m2
10:39 50.7 °F 44.4 °F 30.10 in North 4.0 mph 4.0 mph 79% 0.00 in 580.00 W/m2
10:44 51.0 °F 44.0 °F 30.10 in Calm   4.0 mph 77% 0.00 in 677.00 W/m2
10:49 51.1 °F 43.8 °F 30.09 in Calm   3.0 mph 76% 0.00 in 548.00 W/m2
10:54 51.3 °F 43.3 °F 30.10 in Calm     74% 0.00 in 566.00 W/m2
10:59 51.5 °F 43.5 °F 30.10 in Calm   6.0 mph 74% 0.00 in 601.00 W/m2
11:04 51.7 °F 42.6 °F 30.09 in NNW 2.0 mph 5.0 mph 71% 0.00 in 914.00 W/m2
11:09 52.0 °F 42.9 °F 30.10 in Calm   6.0 mph 71% 0.00 in 803.00 W/m2
11:15 52.2 °F 44.2 °F 30.10 in Calm   10.0 mph 74% 0.00 in 881.00 W/m2
11:20 52.5 °F 43.8 °F 30.10 in WNW 1.0 mph 7.0 mph 72% 0.00 in 872.00 W/m2
11:25 52.8 °F 43.7 °F 30.10 in Calm   4.0 mph 71% 0.00 in 893.00 W/m2
11:30 53.1 °F 43.2 °F 30.10 in WNW 2.0 mph 5.0 mph 69% 0.00 in 853.00 W/m2
11:35 53.5 °F 44.7 °F 30.10 in WNW 4.0 mph 5.0 mph 72% 0.00 in 909.00 W/m2
11:40 53.7 °F 43.8 °F 30.10 in Calm   3.0 mph 69% 0.00 in 926.00 W/m2
11:45 53.9 °F 44.7 °F 30.10 in WNW 3.0 mph 9.0 mph 71% 0.00 in 756.00 W/m2
11:50 54.3 °F 44.4 °F 30.10 in WNW 5.0 mph 11.0 mph 69% 0.00 in 705.00 W/m2
11:55 54.6 °F 44.7 °F 30.09 in WNW 1.0 mph 6.0 mph 69% 0.00 in 1044.00 W/m2
12:00 54.9 °F 45.3 °F 30.09 in Calm   7.0 mph 70% 0.00 in 680.00 W/m2
12:05 55.2 °F 45.2 °F 30.09 in WNW 4.0 mph 7.0 mph 69% 0.00 in 967.00 W/m2
12:10 55.3 °F 43.3 °F 30.09 in WNW 3.0 mph 7.0 mph 64% 0.00 in 846.00 W/m2
12:15 55.5 °F 44.7 °F 30.09 in Calm   5.0 mph 67% 0.00 in 766.00 W/m2
12:20 55.6 °F 44.0 °F 30.08 in Calm   5.0 mph 65% 0.00 in 645.00 W/m2
12:25 55.9 °F 45.1 °F 30.08 in WNW 1.0 mph 4.0 mph 67% 0.00 in 995.00 W/m2
12:30 56.2 °F 45.0 °F 30.08 in WNW 2.0 mph 6.0 mph 66% 0.00 in 981.00 W/m2
12:35 56.5 °F 45.3 °F 30.08 in WNW 6.0 mph 7.0 mph 66% 0.00 in 1090.00 W/m2
12:40 56.7 °F 44.3 °F 30.09 in WNW 4.0 mph 7.0 mph 63% 0.00 in 1011.00 W/m2
12:45 57.0 °F 45.4 °F 30.09 in NW 4.0 mph 8.0 mph 65% 0.00 in 1060.00 W/m2
12:50 57.2 °F 46.0 °F 30.08 in Calm   7.0 mph 66% 0.00 in 1056.00 W/m2
12:55 57.5 °F 45.8 °F 30.08 in NW 1.0 mph 9.0 mph 65% 0.00 in 1078.00 W/m2
13:00 57.9 °F 45.8 °F 30.08 in NW 5.0 mph 7.0 mph 64% 0.00 in 1134.00 W/m2
13:05 58.3 °F 45.8 °F 30.08 in SW 3.0 mph 8.0 mph 63% 0.00 in 455.00 W/m2
13:10 58.3 °F 47.0 °F 30.08 in WSW 4.0 mph 10.0 mph 66% 0.00 in 336.00 W/m2
13:15 57.8 °F 47.7 °F 30.09 in WNW 2.0 mph 12.0 mph 69% 0.00 in 251.00 W/m2
13:20 57.5 °F 46.6 °F 30.08 in West 1.0 mph 5.0 mph 67% 0.00 in 357.00 W/m2
13:25 57.2 °F 46.8 °F 30.09 in Calm   8.0 mph 68% 0.00 in 353.00 W/m2
13:30 57.0 °F 46.9 °F 30.08 in West 6.0 mph 10.0 mph 69% 0.00 in 304.00 W/m2
13:35 56.8 °F 46.8 °F 30.08 in Calm   9.0 mph 69% 0.00 in 255.00 W/m2
13:40 56.7 °F 47.4 °F 30.07 in WSW 1.0 mph 7.0 mph 71% 0.00 in 220.00 W/m2
13:45 56.6 °F 47.3 °F 30.07 in Calm   7.0 mph 71% 0.00 in 287.00 W/m2
13:50 56.5 °F 48.0 °F 30.08 in West 1.0 mph 9.0 mph 73% 0.00 in 336.00 W/m2
13:55 56.5 °F 47.6 °F 30.08 in West 8.0 mph 13.0 mph 72% 0.00 in 1032.00 W/m2
14:00 56.7 °F 47.4 °F 30.08 in Calm   11.0 mph 71% 0.00 in 951.00 W/m2
14:01 56.8 °F 47.5 °F 30.08 in West 2.0 mph 2.0 mph 71% 0.00 in 940.00 W/m2
14:06 57.1 °F 48.2 °F 30.07 in West 5.0 mph 10.0 mph 72% 0.00 in 933.00 W/m2
14:11 57.4 °F 48.1 °F 30.07 in West 11.0 mph 11.0 mph 71% 0.00 in 954.00 W/m2
14:16 57.5 °F 48.2 °F 30.08 in WNW 3.0 mph 8.0 mph 71% 0.00 in 956.00 W/m2
14:21 57.6 °F 47.5 °F 30.08 in West 6.0 mph 6.0 mph 69% 0.00 in 925.00 W/m2
14:26 57.8 °F 48.1 °F 30.08 in Calm     70% 0.00 in 1025.00 W/m2
14:31 58.0 °F 47.1 °F 30.08 in WNW 3.0 mph 6.0 mph 67% 0.00 in 1034.00 W/m2
14:36 58.1 °F 47.2 °F 30.09 in NNW 4.0 mph 5.0 mph 67% 0.00 in 253.00 W/m2
14:41 57.7 °F 46.8 °F 30.08 in Calm     67% 0.00 in 232.00 W/m2
14:46 57.5 °F 47.4 °F 30.08 in WNW 1.0 mph 1.0 mph 69% 0.00 in 772.00 W/m2
14:51 57.4 °F 48.5 °F 30.08 in West 1.0 mph 5.0 mph 72% 0.00 in 1060.00 W/m2
14:56 57.3 °F 48.0 °F 30.08 in West 5.0 mph 5.0 mph 71% 0.00 in 257.00 W/m2
15:01 57.0 °F 46.9 °F 30.08 in WNW 4.0 mph 4.0 mph 69% 0.00 in 318.00 W/m2
15:06 56.8 °F 46.8 °F 30.08 in West 3.0 mph 6.0 mph 69% 0.00 in 399.00 W/m2
15:07 56.8 °F 47.1 °F 30.08 in NW 8.0 mph 8.0 mph 70% 0.00 in 436.00 W/m2
15:12 56.8 °F 47.1 °F 30.08 in Calm   3.0 mph 70% 0.00 in 494.00 W/m2
15:17 56.7 °F 46.3 °F 30.09 in Calm     68% 0.00 in 424.00 W/m2
15:22 56.6 °F 47.3 °F 30.09 in West 1.0 mph 10.0 mph 71% 0.00 in 443.00 W/m2
15:27 56.6 °F 46.6 °F 30.09 in West 2.0 mph 8.0 mph 69% 0.00 in 687.00 W/m2
15:32 56.8 °F 46.4 °F 30.08 in Calm   8.0 mph 68% 0.00 in 482.00 W/m2
15:37 57.0 °F 46.6 °F 30.09 in Calm   7.0 mph 68% 0.00 in 714.00 W/m2
15:42 57.2 °F 47.1 °F 30.09 in WSW 6.0 mph 10.0 mph 69% 0.00 in 554.00 W/m2
15:47 57.5 °F 47.0 °F 30.09 in Calm     68% 0.00 in 499.00 W/m2
15:52 57.6 °F 47.1 °F 30.08 in Calm   5.0 mph 68% 0.00 in 550.00 W/m2
15:57 57.7 °F 47.6 °F 30.08 in Calm   1.0 mph 69% 0.00 in 487.00 W/m2
16:02 57.8 °F 46.9 °F 30.08 in West 3.0 mph 8.0 mph 67% 0.00 in 450.00 W/m2
16:07 57.8 °F 46.9 °F 30.08 in WSW 5.0 mph 7.0 mph 67% 0.00 in 378.00 W/m2
16:12 57.8 °F 46.1 °F 30.07 in Calm   1.0 mph 65% 0.00 in 765.00 W/m2
16:17 57.7 °F 46.4 °F 30.07 in NW 1.0 mph 5.0 mph 66% 0.00 in 343.00 W/m2
16:22 57.6 °F 46.7 °F 30.07 in Calm     67% 0.00 in 385.00 W/m2
16:27 57.6 °F 46.3 °F 30.07 in Calm   1.0 mph 66% 0.00 in 338.00 W/m2
16:32 57.5 °F 46.6 °F 30.07 in West 3.0 mph 7.0 mph 67% 0.00 in 301.00 W/m2
16:37 57.3 °F 46.8 °F 30.07 in WNW 2.0 mph 5.0 mph 68% 0.00 in 410.00 W/m2
16:42 57.3 °F 46.5 °F 30.07 in Calm   7.0 mph 67% 0.00 in 371.00 W/m2
16:47 57.3 °F 46.5 °F 30.08 in Calm   2.0 mph 67% 0.00 in 408.00 W/m2
16:52 57.2 °F 46.8 °F 30.07 in Calm   3.0 mph 68% 0.00 in 503.00 W/m2
16:57 57.2 °F 46.4 °F 30.07 in Calm   9.0 mph 67% 0.00 in 385.00 W/m2
17:07 57.3 °F 46.5 °F 30.07 in WSW 9.0 mph 10.0 mph 67% 0.00 in 397.00 W/m2
17:12 57.3 °F 46.5 °F 30.08 in West 4.0 mph 9.0 mph 67% 0.00 in 236.00 W/m2
17:17 57.3 °F 46.0 °F 30.08 in Calm     66% 0.00 in 174.00 W/m2
17:22 57.1 °F 46.3 °F 30.08 in Calm   4.0 mph 67% 0.00 in 169.00 W/m2
17:27 56.8 °F 45.6 °F 30.08 in West 4.0 mph 4.0 mph 66% 0.00 in 165.00 W/m2
17:32 56.5 °F 45.3 °F 30.08 in Calm     66% 0.00 in 151.00 W/m2
17:37 56.3 °F 45.5 °F 30.08 in Calm     67% 0.00 in 206.00 W/m2
17:42 56.1 °F 44.5 °F 30.07 in Calm   7.0 mph 65% 0.00 in 179.00 W/m2
17:47 55.9 °F 44.7 °F 30.08 in Calm   7.0 mph 66% 0.00 in 229.00 W/m2
17:52 55.8 °F 45.0 °F 30.08 in Calm     67% 0.00 in 160.00 W/m2
17:57 55.8 °F 45.0 °F 30.08 in Calm     67% 0.00 in 160.00 W/m2
18:02 55.7 °F 44.9 °F 30.08 in Calm   8.0 mph 67% 0.00 in 120.00 W/m2
18:07 55.7 °F 44.5 °F 30.08 in Calm   5.0 mph 66% 0.00 in 95.00 W/m2
18:13 55.5 °F 44.3 °F 30.08 in Calm     66% 0.00 in 83.00 W/m2
18:18 55.4 °F 44.6 °F 30.09 in Calm     67% 0.00 in 91.00 W/m2
18:23 55.4 °F 44.6 °F 30.09 in Calm     67% 0.00 in 93.00 W/m2
18:28 55.2 °F 44.8 °F 30.08 in Calm     68% 0.00 in 79.00 W/m2
18:33 55.2 °F 44.5 °F 30.08 in Calm     67% 0.00 in 69.00 W/m2
18:38 55.1 °F 44.3 °F 30.08 in Calm     67% 0.00 in 49.00 W/m2
18:43 55.1 °F 45.1 °F 30.09 in Calm     69% 0.00 in 42.00 W/m2
18:48 54.9 °F 44.9 °F 30.09 in Calm     69% 0.00 in 54.00 W/m2
18:53 54.8 °F 44.8 °F 30.10 in Calm     69% 0.00 in 37.00 W/m2
18:58 54.6 °F 45.0 °F 30.10 in Calm     70% 0.00 in 32.00 W/m2
19:03 54.5 °F 45.3 °F 30.10 in Calm     71% 0.00 in 32.00 W/m2
19:08 54.4 °F 45.2 °F 30.10 in Calm     71% 0.00 in 32.00 W/m2
19:13 54.2 °F 44.6 °F 30.11 in Calm     70% 0.00 in 30.00 W/m2
19:18 54.1 °F 44.9 °F 30.12 in Calm     71% 0.00 in 21.00 W/m2
19:28 53.8 °F 43.9 °F 30.11 in Calm     69% 0.00 in 16.00 W/m2
19:33 53.7 °F 43.8 °F 30.11 in Calm     69% 0.00 in 12.00 W/m2
19:38 53.6 °F 44.1 °F 30.11 in Calm     70% 0.00 in 12.00 W/m2
19:43 53.6 °F 44.4 °F 30.11 in Calm     71% 0.00 in 7.00 W/m2
19:48 53.5 °F 45.1 °F 30.10 in Calm     73% 0.00 in 5.00 W/m2
19:53 53.4 °F 44.6 °F 30.10 in Calm     72% 0.00 in 0.00 W/m2
19:58 53.3 °F 44.9 °F 30.10 in Calm     73% 0.00 in 0.00 W/m2
20:03 53.2 °F 44.8 °F 30.10 in Calm     73% 0.00 in 0.00 W/m2
20:08 53.1 °F 44.7 °F 30.10 in Calm     73% 0.00 in 0.00 W/m2
20:13 52.9 °F 44.5 °F 30.11 in Calm     73% 0.00 in 0.00 W/m2
20:18 52.7 °F 44.3 °F 30.11 in Calm     73% 0.00 in 0.00 W/m2
20:23 52.6 °F 44.6 °F 30.11 in Calm     74% 0.00 in 0.00 W/m2
20:28 52.5 °F 44.5 °F 30.11 in Calm     74% 0.00 in 0.00 W/m2
20:33 52.3 °F 43.9 °F 30.11 in Calm     73% 0.00 in 0.00 W/m2
20:38 52.1 °F 44.8 °F 30.11 in Calm     76% 0.00 in 0.00 W/m2
20:43 51.9 °F 45.3 °F 30.11 in Calm     78% 0.00 in 0.00 W/m2
20:49 51.7 °F 45.1 °F 30.10 in Calm     78% 0.00 in 0.00 W/m2
20:54 51.6 °F 45.0 °F 30.10 in Calm     78% 0.00 in 0.00 W/m2
20:59 51.5 °F 44.5 °F 30.10 in Calm     77% 0.00 in 0.00 W/m2
21:04 51.4 °F 44.8 °F 30.09 in Calm     78% 0.00 in 0.00 W/m2
21:09 51.2 °F 44.2 °F 30.10 in Calm     77% 0.00 in 0.00 W/m2
21:14 51.1 °F 43.8 °F 30.10 in Calm     76% 0.00 in 0.00 W/m2
21:19 51.0 °F 43.4 °F 30.10 in Calm     75% 0.00 in 0.00 W/m2
21:24 50.9 °F 43.3 °F 30.11 in Calm     75% 0.00 in 0.00 W/m2
21:29 50.8 °F 43.9 °F 30.11 in Calm     77% 0.00 in 0.00 W/m2
21:34 50.6 °F 43.3 °F 30.11 in Calm     76% 0.00 in 0.00 W/m2
21:39 50.5 °F 43.6 °F 30.11 in Calm     77% 0.00 in 0.00 W/m2
21:44 50.4 °F 43.5 °F 30.11 in Calm     77% 0.00 in 0.00 W/m2
21:49 50.2 °F 43.3 °F 30.12 in Calm     77% 0.00 in 0.00 W/m2
21:54 50.1 °F 43.2 °F 30.13 in Calm     77% 0.00 in 0.00 W/m2
21:59 50.1 °F 43.2 °F 30.14 in Calm     77% 0.00 in 0.00 W/m2
22:04 50.0 °F 43.4 °F 30.13 in Calm     78% 0.00 in 0.00 W/m2
22:09 50.0 °F 43.1 °F 30.14 in Calm     77% 0.00 in 0.00 W/m2
22:14 49.9 °F 42.7 °F 30.12 in Calm     76% 0.00 in 0.00 W/m2
22:19 49.9 °F 42.7 °F 30.10 in Calm     76% 0.00 in 0.00 W/m2
22:24 50.0 °F 42.7 °F 30.11 in Calm     76% 0.00 in 0.00 W/m2
22:29 50.0 °F 43.1 °F 30.11 in Calm     77% 0.00 in 0.00 W/m2
22:34 50.0 °F 42.4 °F 30.12 in Calm     75% 0.00 in 0.00 W/m2
22:39 50.0 °F 42.4 °F 30.12 in Calm     75% 0.00 in 0.00 W/m2
22:44 50.0 °F 42.0 °F 30.12 in Calm     74% 0.00 in 0.00 W/m2
22:49 50.0 °F 42.0 °F 30.12 in Calm     74% 0.00 in 0.00 W/m2
22:54 49.9 °F 42.3 °F 30.11 in Calm     75% 0.00 in 0.00 W/m2
22:59 49.9 °F 43.0 °F 30.11 in Calm     77% 0.00 in 0.00 W/m2
23:04 50.0 °F 43.4 °F 30.11 in Calm     78% 0.00 in 0.00 W/m2
23:09 49.9 °F 43.3 °F 30.12 in Calm     78% 0.00 in 0.00 W/m2
23:14 49.9 °F 43.3 °F 30.12 in Calm     78% 0.00 in 0.00 W/m2
23:19 49.9 °F 43.3 °F 30.11 in Calm     78% 0.00 in 0.00 W/m2
23:24 49.9 °F 43.7 °F 30.11 in Calm     79% 0.00 in 0.00 W/m2
23:29 49.9 °F 43.7 °F 30.11 in Calm     79% 0.00 in 0.00 W/m2
23:34 49.8 °F 43.2 °F 30.11 in Calm     78% 0.00 in 0.00 W/m2
23:39 49.9 °F 43.3 °F 30.11 in Calm     78% 0.00 in 0.00 W/m2
23:44 49.9 °F 43.3 °F 30.11 in Calm     78% 0.00 in 0.00 W/m2
23:49 49.9 °F 43.3 °F 30.11 in Calm     78% 0.00 in 0.00 W/m2
23:54 49.9 °F 43.3 °F 30.11 in Calm     78% 0.00 in 0.00 W/m2
23:59 49.9 °F 43.0 °F 30.10 in Calm     77% 0.00 in 0.00 W/m2
Foresthill Weather
 WU-history PHP script courtesy of   Juneau County Weather.
powered by Cumulus v1.9.3 (1059)
Ambient Weather VWS v14.00
Top Contact Website Map Copyright © 2007 - 2018 Foresthillweather.com Never base important decisions on this or any weather information obtained from the Internet